<?xml version='1.0' encoding='UTF-8'?>
<gpx xmlns="http://www.topografix.com/GPX/1/1" creator="www.balnam.be" version="1.1" xmlns:xsi="http://www.w3.org/2001/XMLSchema-instance" xsi:schemaLocation="http://www.topografix.com/GPX/1/1 http://www.topografix.com/GPX/1/1/gpx.xsd">
<trk>
<name>hfcbwi8</name>
<cmt>v</cmt>
<desc>Boussu-lez-Walcourt Chemin n°i8 </desc>
<link href="https://chemins.be/boussulezwalcourt/chemin/i8"/><trkseg>
<trkpt lat="50.215310" lon="4.389786"><time>2026-05-02T18:31:16Z</time></trkpt>
<trkpt lat="50.214788" lon="4.389814"><time>2026-05-02T18:41:16Z</time></trkpt>
<trkpt lat="50.211794" lon="4.387711"><time>2026-05-02T18:51:16Z</time></trkpt>
<trkpt lat="50.211007" lon="4.384779"><time>2026-05-02T19:01:16Z</time></trkpt>
<trkpt lat="50.210613" lon="4.384950"><time>2026-05-02T19:11:16Z</time></trkpt>
<trkpt lat="50.210256" lon="4.387554"><time>2026-05-02T19:21:16Z</time></trkpt>
<trkpt lat="50.209158" lon="4.388055"><time>2026-05-02T19:31:16Z</time></trkpt>
<trkpt lat="50.208718" lon="4.388899"><time>2026-05-02T19:41:16Z</time></trkpt>
<trkpt lat="50.208343" lon="4.388841"><time>2026-05-02T19:51:16Z</time></trkpt>
<trkpt lat="50.207757" lon="4.387726"><time>2026-05-02T20:01:16Z</time></trkpt>
<trkpt lat="50.208114" lon="4.384721"><time>2026-05-02T20:11:16Z</time></trkpt>
<trkpt lat="50.207510" lon="4.384421"><time>2026-05-02T20:21:16Z</time></trkpt>
<trkpt lat="50.206448" lon="4.388927"><time>2026-05-02T20:31:16Z</time></trkpt>
<trkpt lat="50.204379" lon="4.390801"><time>2026-05-02T20:41:16Z</time></trkpt>
<trkpt lat="50.203994" lon="4.390515"><time>2026-05-02T20:51:16Z</time></trkpt>
<trkpt lat="50.203161" lon="4.388040"><time>2026-05-02T21:01:16Z</time></trkpt>
<trkpt lat="50.203115" lon="4.384693"><time>2026-05-02T21:11:16Z</time></trkpt>
<trkpt lat="50.202822" lon="4.384578"><time>2026-05-02T21:21:16Z</time></trkpt>
<trkpt lat="50.201897" lon="4.387468"><time>2026-05-02T21:31:16Z</time></trkpt>
<trkpt lat="50.201110" lon="4.387311"><time>2026-05-02T21:41:16Z</time></trkpt>
<trkpt lat="50.200634" lon="4.387643"><time>2026-05-02T21:51:16Z</time></trkpt>
<trkpt lat="50.199398" lon="4.387912"><time>2026-05-02T22:01:16Z</time></trkpt>
<trkpt lat="50.198024" lon="4.389199"><time>2026-05-02T22:11:16Z</time></trkpt>
<trkpt lat="50.196522" lon="4.387096"><time>2026-05-02T22:21:16Z</time></trkpt>
<trkpt lat="50.196504" lon="4.382061"><time>2026-05-02T22:31:16Z</time></trkpt>
<trkpt lat="50.195780" lon="4.382704"><time>2026-05-02T22:41:16Z</time></trkpt>
<trkpt lat="50.195670" lon="4.388126"><time>2026-05-02T22:51:16Z</time></trkpt>
<trkpt lat="50.196165" lon="4.389042"><time>2026-05-02T23:01:16Z</time></trkpt>
<trkpt lat="50.195973" lon="4.389299"><time>2026-05-02T23:11:16Z</time></trkpt>
<trkpt lat="50.195213" lon="4.388713"><time>2026-05-02T23:21:16Z</time></trkpt>
<trkpt lat="50.193354" lon="4.389814"><time>2026-05-02T23:31:16Z</time></trkpt>
<trkpt lat="50.192667" lon="4.390086"><time>2026-05-02T23:41:16Z</time></trkpt>
<trkpt lat="50.192832" lon="4.393848"><time>2026-05-02T23:51:16Z</time></trkpt>
<trkpt lat="50.192584" lon="4.394306"><time>2026-05-03T00:01:16Z</time></trkpt>
<trkpt lat="50.192264" lon="4.394392"><time>2026-05-03T00:11:16Z</time></trkpt>
<trkpt lat="50.191595" lon="4.392546"><time>2026-05-03T00:21:16Z</time></trkpt>
<trkpt lat="50.191643" lon="4.390885"><time>2026-05-03T00:31:16Z</time></trkpt>
<trkpt lat="50.191849" lon="4.390449"><time>2026-05-03T00:41:16Z</time></trkpt>
<trkpt lat="50.192227" lon="4.386266"><time>2026-05-03T00:51:16Z</time></trkpt>
<trkpt lat="50.192749" lon="4.383506"><time>2026-05-03T01:01:16Z</time></trkpt>
<trkpt lat="50.192511" lon="4.382461"><time>2026-05-03T01:11:16Z</time></trkpt>
</trkseg>
</trk>
</gpx>